createdAt,value
2018-09-14T00:01:42.162Z,95396.22
2018-09-14T00:04:12.398Z,95398.33
2018-09-14T00:06:43.085Z,95391.52
2018-09-14T00:09:14.405Z,95388.25
2018-09-14T00:12:16.081Z,95392.87
2018-09-14T00:14:46.369Z,95390.18
2018-09-14T00:17:17.096Z,95388.42
2018-09-14T00:19:47.624Z,95382.89
2018-09-14T00:22:18.576Z,95383.81
2018-09-14T00:24:49.193Z,95385.42
2018-09-14T00:27:19.598Z,95387.44
2018-09-14T00:29:50.314Z,95393.64
2018-09-14T00:32:21.834Z,95401.72
2018-09-14T00:34:51.987Z,95406.00
2018-09-14T00:37:22.241Z,95402.61
2018-09-14T00:39:52.931Z,95406.19
2018-09-14T00:42:24.539Z,95404.67
2018-09-14T00:44:55.274Z,95409.20
2018-09-14T00:47:25.893Z,95408.91
2018-09-14T00:49:56.728Z,95405.83
2018-09-14T00:52:27.985Z,95405.28
2018-09-14T00:54:57.991Z,95402.09
2018-09-14T00:57:28.443Z,95403.03
2018-09-14T00:59:59.005Z,95403.30
2018-09-14T01:02:29.786Z,95397.83
2018-09-14T01:05:00.526Z,95395.69
2018-09-14T01:07:31.052Z,95401.23
2018-09-14T01:10:01.269Z,95393.44
2018-09-14T01:12:31.934Z,95388.73
2018-09-14T01:15:02.491Z,95379.98
2018-09-14T01:17:33.054Z,95386.69
2018-09-14T01:20:03.840Z,95383.45
2018-09-14T01:22:34.918Z,95381.16
2018-09-14T01:25:05.494Z,95378.09
2018-09-14T01:27:35.881Z,95383.81
2018-09-14T01:30:06.669Z,95390.37
2018-09-14T01:32:37.985Z,95392.93
2018-09-14T01:35:13.048Z,95395.92
2018-09-14T01:37:43.829Z,95400.89
2018-09-14T01:40:14.246Z,95394.59
2018-09-14T01:42:45.377Z,95399.27
2018-09-14T01:45:15.934Z,95400.62
2018-09-14T01:47:46.651Z,95409.05
2018-09-14T01:50:17.267Z,95403.47
2018-09-14T01:52:48.983Z,95399.71
2018-09-14T01:55:19.463Z,95395.05
2018-09-14T01:59:14.211Z,95399.94
2018-09-14T02:01:44.478Z,95399.47
2018-09-14T02:04:15.006Z,95400.34
2018-09-14T02:06:45.197Z,95395.25
2018-09-14T02:09:15.533Z,95396.06
2018-09-14T02:11:46.186Z,95392.14
2018-09-14T02:14:16.403Z,95392.98
2018-09-14T02:16:47.155Z,95395.49
2018-09-14T02:19:17.658Z,95393.28
2018-09-14T02:21:49.371Z,95395.30
2018-09-14T02:24:19.908Z,95393.25
2018-09-14T02:26:50.615Z,95384.31
2018-09-14T02:29:21.003Z,95393.11
2018-09-14T02:31:52.028Z,95402.57
2018-09-14T02:34:22.592Z,95400.48
2018-09-14T02:36:53.341Z,95409.02
2018-09-14T02:39:24.055Z,95402.56
2018-09-14T02:41:54.969Z,95401.81
2018-09-14T02:44:25.527Z,95394.82
2018-09-14T02:46:56.141Z,95388.59
2018-09-14T02:49:26.584Z,95389.31
2018-09-14T02:51:58.117Z,95388.59
2018-09-14T02:54:28.869Z,95391.95
2018-09-14T02:56:59.518Z,95386.13
2018-09-14T02:59:30.282Z,95385.33
2018-09-14T03:02:00.871Z,95384.88
2018-09-14T03:04:31.390Z,95384.77
2018-09-14T03:07:02.018Z,95386.70
2018-09-14T03:09:32.551Z,95383.73
2018-09-14T03:12:03.692Z,95389.90
2018-09-14T03:14:34.224Z,95380.17
2018-09-14T03:17:05.103Z,95381.38
2018-09-14T03:19:35.471Z,95378.93
2018-09-14T03:22:06.577Z,95376.11
2018-09-14T03:24:36.965Z,95376.25
2018-09-14T03:27:07.053Z,95380.97
2018-09-14T03:29:37.665Z,95381.19
2018-09-14T03:32:08.829Z,95381.38
2018-09-14T03:34:39.163Z,95384.64
2018-09-14T03:37:09.341Z,95383.88
2018-09-14T03:39:39.657Z,95392.78
2018-09-14T03:42:10.870Z,95389.41
2018-09-14T03:44:41.358Z,95389.90
2018-09-14T03:47:11.623Z,95394.08
2018-09-14T03:49:41.885Z,95393.27
2018-09-14T03:52:12.583Z,95348.36
2018-09-14T03:54:42.729Z,95395.41
2018-09-14T03:57:13.129Z,95399.59
2018-09-14T03:59:43.527Z,95401.46
2018-09-14T04:02:14.650Z,95408.37
2018-09-14T04:04:45.191Z,95404.53
2018-09-14T04:07:15.785Z,95408.17
2018-09-14T04:09:46.069Z,95411.36
2018-09-14T04:12:17.246Z,95408.79
2018-09-14T04:14:47.797Z,95413.49
2018-09-14T04:17:18.554Z,95424.64
2018-09-14T04:19:48.868Z,95421.63
2018-09-14T04:22:19.774Z,95426.41
2018-09-14T04:24:49.903Z,95422.20
2018-09-14T04:27:20.335Z,95423.86
2018-09-14T04:29:50.666Z,95421.57
2018-09-14T04:32:21.534Z,95430.27
2018-09-14T04:34:51.781Z,95427.12
2018-09-14T04:37:22.080Z,95428.53
2018-09-14T04:39:52.849Z,95427.17
2018-09-14T04:42:23.744Z,95421.08
2018-09-14T04:44:54.106Z,95427.97
2018-09-14T04:47:24.551Z,95424.27
2018-09-14T04:49:55.197Z,95420.87
2018-09-14T04:52:26.526Z,95421.22
2018-09-14T04:54:56.832Z,95421.73
2018-09-14T04:57:27.185Z,95414.47
2018-09-14T04:59:57.564Z,95417.78
2018-09-14T05:02:28.377Z,95413.42
2018-09-14T05:04:59.196Z,95417.45
2018-09-14T05:07:29.501Z,95420.48
2018-09-14T05:10:00.081Z,95413.95
2018-09-14T05:12:30.945Z,95410.47
2018-09-14T05:15:01.287Z,95410.44
2018-09-14T05:17:32.049Z,95414.10
2018-09-14T05:20:02.234Z,95411.16
2018-09-14T05:22:33.042Z,95413.09
2018-09-14T05:25:03.522Z,95414.56
2018-09-14T05:27:33.750Z,95411.03
2018-09-14T05:30:03.875Z,95409.70
2018-09-14T05:32:34.797Z,95402.59
2018-09-14T05:35:05.031Z,95402.66
2018-09-14T05:37:35.313Z,95402.79
2018-09-14T05:40:05.947Z,95396.63
2018-09-14T05:42:36.419Z,95400.29
2018-09-14T05:45:06.740Z,95394.58
2018-09-14T05:47:37.155Z,95397.78
2018-09-14T05:50:07.696Z,95389.87
2018-09-14T05:52:38.896Z,95392.41
2018-09-14T05:55:09.235Z,95393.38
2018-09-14T05:57:39.787Z,95396.66
2018-09-14T06:00:10.125Z,95398.61
2018-09-14T06:02:41.274Z,95404.89
2018-09-14T06:05:11.673Z,95405.66
2018-09-14T06:07:41.869Z,95404.35
2018-09-14T06:10:12.114Z,95409.42
2018-09-14T06:12:42.736Z,95413.91
2018-09-14T06:15:13.307Z,95413.55
2018-09-14T06:17:44.184Z,95407.29
2018-09-14T06:20:14.662Z,95413.41
2018-09-14T06:22:45.877Z,95411.69
2018-09-14T06:25:16.307Z,95408.70
2018-09-14T06:27:46.063Z,95408.39
2018-09-14T06:30:16.030Z,95408.70
2018-09-14T06:32:46.950Z,95409.84
2018-09-14T06:35:16.635Z,95404.39
2018-09-14T06:37:46.514Z,95414.38
2018-09-14T06:40:16.410Z,95408.92
2018-09-14T06:42:46.214Z,95409.78
2018-09-14T06:45:15.991Z,95406.45
2018-09-14T06:47:45.851Z,95407.66
2018-09-14T06:51:18.258Z,95406.63
2018-09-14T06:53:48.182Z,95408.70
2018-09-14T06:56:24.649Z,95407.00
2018-09-14T06:58:54.449Z,95419.98
2018-09-14T07:01:24.452Z,95406.77
2018-09-14T07:03:54.544Z,95408.33
2018-09-14T07:06:24.452Z,95403.43
2018-09-14T07:08:54.200Z,95405.03
2018-09-14T07:11:24.067Z,95407.77
2018-09-14T07:13:53.906Z,95408.77
2018-09-14T07:16:23.717Z,95407.14
2018-09-14T07:18:53.598Z,95413.44
2018-09-14T07:21:23.268Z,95407.73
2018-09-14T07:23:52.990Z,95408.92
2018-09-14T07:26:22.720Z,95409.72
2018-09-14T07:28:52.399Z,95403.88
2018-09-14T07:31:22.152Z,95408.12
2018-09-14T07:33:51.918Z,95410.10
2018-09-14T07:36:21.727Z,95408.33
2018-09-14T07:38:51.536Z,95407.16
2018-09-14T07:41:21.338Z,95411.06
2018-09-14T07:43:51.062Z,95404.58
2018-09-14T07:46:21.424Z,95401.20
2018-09-14T07:48:51.592Z,95401.80
2018-09-14T07:51:21.998Z,95388.48
2018-09-14T07:53:52.562Z,95396.48
2018-09-14T07:56:22.931Z,95400.94
2018-09-14T07:58:57.126Z,95387.75
2018-09-14T08:01:27.674Z,95393.66
2018-09-14T08:03:58.026Z,95395.13
2018-09-14T08:06:28.417Z,95388.80
2018-09-14T08:08:58.625Z,95386.02
2018-09-14T08:11:29.060Z,95380.96
2018-09-14T08:13:59.392Z,95379.88
2018-09-14T08:16:29.754Z,95379.73
2018-09-14T08:19:03.863Z,95371.97
2018-09-14T08:21:34.066Z,95370.39
2018-09-14T08:24:04.392Z,95363.70
2018-09-14T08:26:34.727Z,95360.09
2018-09-14T08:29:05.735Z,95366.83
2018-09-14T08:31:35.965Z,95354.02
2018-09-14T08:34:06.472Z,95348.08
2018-09-14T08:36:36.742Z,95351.63
2018-09-14T08:39:11.361Z,95349.47
2018-09-14T08:41:41.956Z,95346.20
2018-09-14T08:44:12.482Z,95342.00
2018-09-14T08:46:42.686Z,95340.96
2018-09-14T08:49:12.991Z,95340.97
2018-09-14T08:51:43.351Z,95341.28
2018-09-14T08:54:13.930Z,95329.27
2018-09-14T08:56:44.546Z,95331.11
2018-09-14T08:59:15.300Z,95333.83
2018-09-14T09:01:45.690Z,95325.85
2018-09-14T09:04:16.124Z,95324.30
2018-09-14T09:06:45.986Z,95313.18
2018-09-14T09:09:16.667Z,95314.04
2018-09-14T09:11:46.526Z,95324.92
2018-09-14T09:14:16.274Z,95316.48
2018-09-14T09:16:45.953Z,95315.68
2018-09-14T09:19:16.219Z,95316.66
2018-09-14T09:21:46.401Z,95313.95
2018-09-14T09:24:16.350Z,95320.33
2018-09-14T09:26:46.794Z,95313.39
2018-09-14T09:29:17.674Z,95308.38
2018-09-14T09:31:47.423Z,95307.34
2018-09-14T09:34:17.764Z,95306.95
2018-09-14T09:36:47.510Z,95302.14
2018-09-14T09:39:17.462Z,95303.27
2018-09-14T09:41:47.195Z,95298.55
2018-09-14T09:44:16.932Z,95290.59
2018-09-14T09:46:46.731Z,95294.97
2018-09-14T09:49:16.442Z,95293.29
2018-09-14T09:51:46.252Z,95285.17
2018-09-14T09:54:16.117Z,95281.88
2018-09-14T09:56:46.133Z,95292.06
2018-09-14T09:59:15.844Z,95280.27
2018-09-14T10:01:50.790Z,95285.16
2018-09-14T10:04:26.151Z,95267.08
2018-09-14T10:06:57.085Z,95274.81
2018-09-14T10:09:27.783Z,95278.42
2018-09-14T10:16:51.025Z,95271.41
2018-09-14T10:19:21.521Z,95262.61
2018-09-14T10:21:52.186Z,95257.95
2018-09-14T10:24:21.927Z,95254.60
2018-09-14T10:26:51.738Z,95253.30
2018-09-14T10:29:21.454Z,95246.59
2018-09-14T10:31:51.260Z,95253.15
2018-09-14T10:34:21.019Z,95244.84
2018-09-14T10:36:50.869Z,95240.31
2018-09-14T10:39:20.671Z,95241.74
2018-09-14T10:41:50.479Z,95241.92
2018-09-14T10:44:20.254Z,95238.00
2018-09-14T10:46:49.935Z,95233.02
2018-09-14T10:49:19.570Z,95226.55
2018-09-14T10:51:49.344Z,95228.52
2018-09-14T10:54:19.348Z,95221.74
2018-09-14T10:56:49.675Z,95225.89
2018-09-14T10:59:19.422Z,95227.11
2018-09-14T11:01:49.147Z,95225.77
2018-09-14T11:04:19.040Z,95220.63
2018-09-14T11:06:48.717Z,95212.72
2018-09-14T11:09:18.628Z,95212.88
2018-09-14T11:11:48.518Z,95203.19
2018-09-14T11:14:18.410Z,95196.27
2018-09-14T11:16:48.098Z,95195.00
2018-09-14T11:19:17.901Z,95195.79
2018-09-14T11:21:48.094Z,95195.81
2018-09-14T11:24:17.893Z,95194.93
2018-09-14T11:26:47.641Z,95200.84
2018-09-14T11:29:17.466Z,95197.73
2018-09-14T11:31:47.243Z,95197.56
2018-09-14T11:34:16.990Z,95197.73
2018-09-14T11:36:46.942Z,95198.80
2018-09-14T11:39:17.003Z,95198.75
2018-09-14T11:41:47.530Z,95195.89
2018-09-14T11:44:18.981Z,95197.96
2018-09-14T11:46:49.272Z,95202.20
2018-09-14T11:49:19.562Z,95198.47
2018-09-14T11:51:49.775Z,95201.66
2018-09-14T11:54:20.480Z,95205.95
2018-09-14T11:56:50.895Z,95203.49
2018-09-14T11:59:21.576Z,95205.03
2018-09-14T12:01:52.360Z,95198.72
2018-09-14T12:04:23.206Z,95200.02
2018-09-14T12:06:53.649Z,95203.33
2018-09-14T12:09:24.077Z,95197.95
2018-09-14T12:11:54.391Z,95199.96
2018-09-14T12:14:25.187Z,95196.39
2018-09-14T12:16:55.006Z,95198.56
2018-09-14T12:19:24.677Z,95198.56
2018-09-14T12:21:54.330Z,95200.39
2018-09-14T12:24:24.092Z,95197.89
2018-09-14T12:26:53.717Z,95194.00
2018-09-14T12:29:23.334Z,95190.95
2018-09-14T12:31:53.102Z,95185.97
2018-09-14T12:34:22.751Z,95197.66
2018-09-14T12:36:52.329Z,95191.77
2018-09-14T12:39:22.190Z,95184.29
2018-09-14T12:41:51.835Z,95186.66
2018-09-14T12:44:22.021Z,95184.48
2018-09-14T12:46:52.425Z,95191.95
2018-09-14T12:49:22.886Z,95192.39
2018-09-14T12:51:53.343Z,95193.80
2018-09-14T12:54:24.385Z,95195.61
2018-09-14T12:56:54.771Z,95198.48
2018-09-14T12:59:25.384Z,95202.32
2018-09-14T13:01:55.684Z,95199.70
2018-09-14T13:04:26.753Z,95196.61
2018-09-14T13:06:56.920Z,95198.72
2018-09-14T13:09:27.247Z,95197.66
2018-09-14T13:11:57.770Z,95198.65
2018-09-14T13:14:27.533Z,95199.34
2018-09-14T13:17:00.336Z,95192.22
2018-09-14T13:19:31.176Z,95192.05
2018-09-14T13:22:00.978Z,95194.11
2018-09-14T13:24:32.298Z,95196.73
2018-09-14T13:27:02.645Z,95197.52
2018-09-14T13:29:32.328Z,95194.66
2018-09-14T13:32:02.190Z,95195.22
2018-09-14T13:34:32.081Z,95190.34
2018-09-14T13:37:01.858Z,95190.93
2018-09-14T13:39:31.658Z,95190.64
2018-09-14T13:42:01.385Z,95189.09
2018-09-14T13:44:31.118Z,95185.70
2018-09-14T13:47:01.112Z,95186.62
2018-09-14T13:49:30.832Z,95184.23
2018-09-14T13:52:00.689Z,95191.92
2018-09-14T13:54:30.749Z,95192.13
2018-09-14T13:57:00.630Z,95191.53
2018-09-14T13:59:30.291Z,95194.70
2018-09-14T14:02:00.117Z,95191.26
2018-09-14T14:04:29.883Z,95204.51
2018-09-14T14:06:59.655Z,95201.45
2018-09-14T14:09:29.442Z,95202.02
2018-09-14T14:11:59.180Z,95201.45
2018-09-14T14:14:28.959Z,95207.36
2018-09-14T14:20:46.133Z,95209.59
2018-09-14T14:23:16.425Z,95213.42
2018-09-14T14:25:46.200Z,95213.30
2018-09-14T14:28:16.102Z,95215.23
2018-09-14T14:30:45.980Z,95216.63
2018-09-14T14:33:15.624Z,95220.11
2018-09-14T14:35:45.460Z,95220.88
2018-09-14T14:38:15.203Z,95222.99
2018-09-14T14:40:46.010Z,95222.63
2018-09-14T14:43:15.734Z,95221.52
2018-09-14T14:45:45.585Z,95225.84
2018-09-14T14:48:15.440Z,95226.62
2018-09-14T14:50:45.185Z,95226.32
2018-09-14T14:53:14.965Z,95227.45
2018-09-14T14:55:44.680Z,95231.06
2018-09-14T14:58:14.420Z,95224.72
2018-09-14T15:00:44.209Z,95227.34
2018-09-14T15:03:13.957Z,95233.66
2018-09-14T15:05:43.816Z,95230.84
2018-09-14T15:08:13.630Z,95231.75
2018-09-14T15:10:43.438Z,95235.52
2018-09-14T15:13:13.318Z,95232.45
2018-09-14T15:15:43.206Z,95226.05
2018-09-14T15:18:12.997Z,95241.22
2018-09-14T15:20:42.881Z,95239.42
2018-09-14T15:23:43.920Z,95237.45
2018-09-14T15:26:13.686Z,95239.19
2018-09-14T15:28:43.485Z,95236.67
2018-09-14T15:31:13.806Z,95232.74
2018-09-14T15:33:44.062Z,95238.22
2018-09-14T15:36:14.272Z,95241.59
2018-09-14T15:38:44.373Z,95239.58
2018-09-14T15:41:14.915Z,95244.39
2018-09-14T15:43:45.516Z,95245.67
2018-09-14T15:46:16.861Z,95249.27
2018-09-14T15:48:46.634Z,95252.48
2018-09-14T15:51:16.632Z,95257.36
2018-09-14T15:53:47.298Z,95254.17
2018-09-14T15:56:18.780Z,95258.66
2018-09-14T15:58:49.225Z,95255.58
2018-09-14T16:01:19.633Z,95259.03
2018-09-14T16:03:49.828Z,95264.95
2018-09-14T16:06:20.232Z,95260.18
2018-09-14T16:08:50.402Z,95261.98
2018-09-14T16:11:20.931Z,95264.25
2018-09-14T16:13:51.372Z,95273.41
2018-09-14T16:16:22.461Z,95275.36
2018-09-14T16:18:52.821Z,95276.37
2018-09-14T16:21:23.129Z,95280.08
2018-09-14T16:23:53.945Z,95282.02
2018-09-14T16:26:25.345Z,95282.25
2018-09-14T16:28:55.833Z,95287.62
2018-09-14T16:31:26.462Z,95245.61
2018-09-14T16:33:57.104Z,95294.44
2018-09-14T16:36:30.935Z,95293.84
2018-09-14T16:39:01.353Z,95295.58
2018-09-14T16:41:31.876Z,95300.33
2018-09-14T16:44:02.771Z,95297.75
2018-09-14T16:46:33.719Z,95297.63
2018-09-14T16:49:03.941Z,95307.44
2018-09-14T16:51:34.391Z,95306.67
2018-09-14T16:54:04.838Z,95304.77
2018-09-14T16:56:35.963Z,95303.41
2018-09-14T16:59:06.536Z,95313.89
2018-09-14T17:01:37.033Z,95312.66
2018-09-14T17:04:07.375Z,95319.88
2018-09-14T17:06:38.185Z,95320.26
2018-09-14T17:09:10.090Z,95329.97
2018-09-14T17:11:40.778Z,95334.02
2018-09-14T17:14:11.603Z,95330.75
2018-09-14T17:16:43.248Z,95343.53
2018-09-14T17:19:13.976Z,95344.98
2018-09-14T17:21:44.599Z,95343.06
2018-09-14T17:24:15.368Z,95347.12
2018-09-14T17:26:46.009Z,95351.84
2018-09-14T17:29:16.026Z,95353.68
2018-09-14T17:31:46.650Z,95358.17
2018-09-14T17:34:17.178Z,95365.73
2018-09-14T17:36:48.091Z,95364.25
2018-09-14T17:39:18.341Z,95374.94
2018-09-14T17:41:48.698Z,95378.52
2018-09-14T17:44:19.704Z,95383.52
2018-09-14T17:46:50.803Z,95384.23
2018-09-14T17:49:21.091Z,95391.00
2018-09-14T17:51:51.806Z,95387.04
2018-09-14T17:54:22.009Z,95396.81
2018-09-14T17:56:53.019Z,95399.56
2018-09-14T17:59:23.273Z,95403.43
2018-09-14T18:01:53.489Z,95409.92
2018-09-14T18:04:23.910Z,95412.23
2018-09-14T18:06:54.616Z,95410.55
2018-09-14T18:09:25.073Z,95410.83
2018-09-14T18:11:55.496Z,95408.79
2018-09-14T18:14:25.747Z,95413.52
2018-09-14T18:16:57.378Z,95416.66
2018-09-14T18:19:27.782Z,95414.51
2018-09-14T18:21:57.924Z,95420.00
2018-09-14T18:24:28.594Z,95423.53
2018-09-14T18:26:59.785Z,95425.41
2018-09-14T18:29:30.334Z,95427.70
2018-09-14T18:32:00.758Z,95430.47
2018-09-14T18:34:30.837Z,95428.97
2018-09-14T18:37:02.705Z,95431.73
2018-09-14T18:39:33.207Z,95435.58
2018-09-14T18:42:03.693Z,95433.22
2018-09-14T18:44:34.223Z,95433.94
2018-09-14T18:47:05.670Z,95439.92
2018-09-14T18:49:35.984Z,95439.66
2018-09-14T18:52:06.427Z,95446.62
2018-09-14T18:54:36.543Z,95444.91
2018-09-14T18:57:07.002Z,95445.89
2018-09-14T18:59:37.580Z,95449.83
2018-09-14T19:02:07.990Z,95451.17
2018-09-14T19:04:38.705Z,95458.98
2018-09-14T19:07:09.581Z,95459.52
2018-09-14T19:09:40.037Z,95465.70
2018-09-14T19:12:10.576Z,95463.89
2018-09-14T19:14:40.738Z,95463.57
2018-09-14T19:17:11.798Z,95459.14
2018-09-14T19:19:42.215Z,95464.67
2018-09-14T19:22:12.543Z,95465.91
2018-09-14T19:24:43.081Z,95470.37
2018-09-14T19:27:13.711Z,95469.26
2018-09-14T19:29:44.179Z,95472.08
2018-09-14T19:32:14.922Z,95474.82
2018-09-14T19:34:44.966Z,95481.08
2018-09-14T19:37:15.923Z,95488.16
2018-09-14T19:39:46.209Z,95485.64
2018-09-14T19:42:16.459Z,95487.54
2018-09-14T19:44:46.795Z,95491.84
2018-09-14T19:47:18.411Z,95487.54
2018-09-14T19:49:49.099Z,95490.05
2018-09-14T19:52:19.162Z,95491.70
2018-09-14T19:54:49.338Z,95490.63
2018-09-14T19:57:20.195Z,95485.35
2018-09-14T19:59:50.635Z,95490.64
2018-09-14T20:02:20.911Z,95494.09
2018-09-14T20:04:51.067Z,95493.22
2018-09-14T20:07:22.764Z,95500.02
2018-09-14T20:09:53.267Z,95496.42
2018-09-14T20:12:23.351Z,95499.69
2018-09-14T20:14:53.736Z,95503.42
2018-09-14T20:17:25.275Z,95509.78
2018-09-14T20:19:55.793Z,95505.81
2018-09-14T20:22:26.541Z,95507.48
2018-09-14T20:24:57.398Z,95509.27
2018-09-14T20:27:28.049Z,95504.55
2018-09-14T20:29:58.453Z,95503.51
2018-09-14T20:32:28.986Z,95510.91
2018-09-14T20:34:59.470Z,95508.00
2018-09-14T20:37:30.598Z,95507.64
2018-09-14T20:40:01.156Z,95510.11
2018-09-14T20:42:32.046Z,95507.97
2018-09-14T20:45:02.672Z,95515.87
2018-09-14T20:47:33.704Z,95505.97
2018-09-14T20:50:04.082Z,95514.40
2018-09-14T20:52:34.382Z,95509.20
2018-09-14T20:55:05.067Z,95513.28
2018-09-14T20:57:35.693Z,95514.19
2018-09-14T21:00:06.229Z,95514.72
2018-09-14T21:02:36.750Z,95520.70
2018-09-14T21:05:07.382Z,95526.55
2018-09-14T21:07:38.429Z,95523.52
2018-09-14T21:10:08.911Z,95527.47
2018-09-14T21:12:39.178Z,95526.34
2018-09-14T21:15:09.252Z,95527.78
2018-09-14T21:17:40.251Z,95528.69
2018-09-14T21:20:10.386Z,95524.98
2018-09-14T21:22:41.261Z,95524.53
2018-09-14T21:25:12.104Z,95524.19
2018-09-14T21:27:42.578Z,95522.95
2018-09-14T21:30:12.770Z,95526.10
2018-09-14T21:32:43.279Z,95527.23
2018-09-14T21:35:13.528Z,95528.02
2018-09-14T21:37:45.056Z,95532.17
2018-09-14T21:40:15.395Z,95534.77
2018-09-14T21:42:45.857Z,95530.39
2018-09-14T21:45:16.106Z,95532.73
2018-09-14T21:47:47.325Z,95529.56
2018-09-14T21:50:17.561Z,95527.59
2018-09-14T21:52:48.178Z,95531.75
2018-09-14T21:55:18.702Z,95534.45
2018-09-14T21:57:49.614Z,95537.14
2018-09-14T22:01:53.992Z,95539.63
2018-09-14T22:04:24.359Z,95540.03
2018-09-14T22:06:54.735Z,95540.92
2018-09-14T22:09:25.048Z,95549.92
2018-09-14T22:11:55.524Z,95552.20
2018-09-14T22:14:25.702Z,95546.88
2018-09-14T22:16:56.069Z,95553.72
2018-09-14T22:19:26.583Z,95553.34
2018-09-14T22:21:56.824Z,95554.80
2018-09-14T22:24:27.435Z,95545.22
2018-09-14T22:26:58.538Z,95552.13
2018-09-14T22:29:28.873Z,95549.37
2018-09-14T22:31:59.206Z,95542.80
2018-09-14T22:34:29.557Z,95546.73
2018-09-14T22:37:00.466Z,95550.06
2018-09-14T22:39:31.058Z,95549.73
2018-09-14T22:42:01.447Z,95554.50
2018-09-14T22:44:31.894Z,95549.37
2018-09-14T22:47:03.618Z,95562.15
2018-09-14T22:49:34.331Z,95565.09
2018-09-14T22:52:04.875Z,95562.44
2018-09-14T22:54:35.414Z,95563.03
2018-09-14T22:57:06.537Z,95561.41
2018-09-14T22:59:36.762Z,95557.37
2018-09-14T23:02:07.174Z,95567.43
2018-09-14T23:04:37.905Z,95560.83
2018-09-14T23:07:08.791Z,95563.06
2018-09-14T23:09:39.153Z,95567.07
2018-09-14T23:12:09.429Z,95559.63
2018-09-14T23:14:39.574Z,95564.55
2018-09-14T23:17:09.954Z,95566.33
2018-09-14T23:19:40.211Z,95561.92
2018-09-14T23:22:10.682Z,95558.37
2018-09-14T23:24:41.149Z,95561.16
2018-09-14T23:27:12.196Z,95565.36
2018-09-14T23:29:42.621Z,95564.41
2018-09-14T23:32:12.881Z,95561.07
2018-09-14T23:34:43.429Z,95561.77
2018-09-14T23:37:14.633Z,95567.86
2018-09-14T23:39:44.754Z,95565.09
2018-09-14T23:42:14.863Z,95566.36
2018-09-14T23:44:45.253Z,95565.35
2018-09-14T23:47:16.355Z,95566.36
2018-09-14T23:49:46.711Z,95567.78
2018-09-14T23:52:17.144Z,95569.22
2018-09-14T23:54:47.499Z,95572.81
2018-09-14T23:57:18.399Z,95569.41
2018-09-14T23:59:49.223Z,95574.77
